sensor_id;sensor_type;location;lat;lon;timestamp;pressure;altitude;pressure_sealevel;temperature;humidity
55187;BME280;55457;52.002;5.464;2023-04-26T00:01:56;101730.47;;;19.81;38.37
55187;BME280;55457;52.002;5.464;2023-04-26T00:04:22;101724.22;;;19.80;38.33
55187;BME280;55457;52.002;5.464;2023-04-26T00:06:47;101728.00;;;19.79;38.45
55187;BME280;55457;52.002;5.464;2023-04-26T00:09:13;101723.41;;;19.80;38.45
55187;BME280;55457;52.002;5.464;2023-04-26T00:11:39;101719.06;;;19.79;38.32
55187;BME280;55457;52.002;5.464;2023-04-26T00:14:04;101721.75;;;19.79;38.36
55187;BME280;55457;52.002;5.464;2023-04-26T00:16:29;101719.06;;;19.79;38.42
55187;BME280;55457;52.002;5.464;2023-04-26T00:18:55;101714.66;;;19.78;38.49
55187;BME280;55457;52.002;5.464;2023-04-26T00:21:20;101716.53;;;19.77;38.33
55187;BME280;55457;52.002;5.464;2023-04-26T00:23:46;101721.13;;;19.77;38.31
55187;BME280;55457;52.002;5.464;2023-04-26T00:26:11;101720.06;;;19.78;38.35
55187;BME280;55457;52.002;5.464;2023-04-26T00:28:36;101719.25;;;19.77;38.47
55187;BME280;55457;52.002;5.464;2023-04-26T00:31:01;101722.19;;;19.76;38.39
55187;BME280;55457;52.002;5.464;2023-04-26T00:33:27;101725.72;;;19.76;38.34
55187;BME280;55457;52.002;5.464;2023-04-26T00:35:52;101717.00;;;19.74;38.34
55187;BME280;55457;52.002;5.464;2023-04-26T00:38:18;101720.53;;;19.75;38.56
55187;BME280;55457;52.002;5.464;2023-04-26T00:40:43;101720.53;;;19.75;38.38
55187;BME280;55457;52.002;5.464;2023-04-26T00:43:09;101723.22;;;19.75;38.28
55187;BME280;55457;52.002;5.464;2023-04-26T00:45:35;101716.78;;;19.76;38.43
55187;BME280;55457;52.002;5.464;2023-04-26T00:48:02;101720.53;;;19.75;38.31
55187;BME280;55457;52.002;5.464;2023-04-26T00:50:28;101716.16;;;19.74;38.37
55187;BME280;55457;52.002;5.464;2023-04-26T00:52:54;101713.47;;;19.74;38.30
55187;BME280;55457;52.002;5.464;2023-04-26T00:55:21;101712.63;;;19.73;38.37
55187;BME280;55457;52.002;5.464;2023-04-26T00:57:47;101709.06;;;19.73;38.44
55187;BME280;55457;52.002;5.464;2023-04-26T01:00:13;101711.78;;;19.73;38.48
55187;BME280;55457;52.002;5.464;2023-04-26T01:02:39;101718.06;;;19.73;38.50
55187;BME280;55457;52.002;5.464;2023-04-26T01:05:05;101717.19;;;19.73;38.53
55187;BME280;55457;52.002;5.464;2023-04-26T01:07:31;101710.94;;;19.72;38.43
55187;BME280;55457;52.002;5.464;2023-04-26T01:09:57;101716.38;;;19.72;38.37
55187;BME280;55457;52.002;5.464;2023-04-26T01:12:23;101709.06;;;19.73;38.31
55187;BME280;55457;52.002;5.464;2023-04-26T01:14:49;101723.47;;;19.73;38.30
55187;BME280;55457;52.002;5.464;2023-04-26T01:17:14;101721.78;;;19.72;38.30
55187;BME280;55457;52.002;5.464;2023-04-26T01:19:47;101721.78;;;19.72;38.48
55187;BME280;55457;52.002;5.464;2023-04-26T01:22:12;101716.59;;;19.71;38.39
55187;BME280;55457;52.002;5.464;2023-04-26T01:24:38;101730.94;;;19.71;38.38
55187;BME280;55457;52.002;5.464;2023-04-26T01:27:05;101730.94;;;19.71;38.44
55187;BME280;55457;52.002;5.464;2023-04-26T01:29:31;101724.72;;;19.71;38.41
55187;BME280;55457;52.002;5.464;2023-04-26T01:31:56;101730.94;;;19.71;38.39
55187;BME280;55457;52.002;5.464;2023-04-26T01:34:21;101721.19;;;19.70;38.41
55187;BME280;55457;52.002;5.464;2023-04-26T01:36:46;101722.22;;;19.69;38.49
55187;BME280;55457;52.002;5.464;2023-04-26T01:39:12;101722.44;;;19.68;38.39
55187;BME280;55457;52.002;5.464;2023-04-26T01:41:37;101728.47;;;19.70;38.45
55187;BME280;55457;52.002;5.464;2023-04-26T01:44:03;101721.41;;;19.69;38.37
55187;BME280;55457;52.002;5.464;2023-04-26T01:46:28;101721.41;;;19.69;38.54
55187;BME280;55457;52.002;5.464;2023-04-26T01:48:54;101716.19;;;19.67;38.34
55187;BME280;55457;52.002;5.464;2023-04-26T01:51:19;101718.91;;;19.67;38.51
55187;BME280;55457;52.002;5.464;2023-04-26T01:53:45;101719.72;;;19.68;38.39
55187;BME280;55457;52.002;5.464;2023-04-26T01:56:10;101706.41;;;19.66;38.45
55187;BME280;55457;52.002;5.464;2023-04-26T01:58:36;101711.84;;;19.66;38.38
55187;BME280;55457;52.002;5.464;2023-04-26T02:01:05;101714.31;;;19.68;38.44
55187;BME280;55457;52.002;5.464;2023-04-26T02:03:31;101715.34;;;19.67;38.30
55187;BME280;55457;52.002;5.464;2023-04-26T02:05:56;101716.41;;;19.66;38.44
55187;BME280;55457;52.002;5.464;2023-04-26T02:08:22;101718.06;;;19.67;38.40
55187;BME280;55457;52.002;5.464;2023-04-26T02:10:47;101714.75;;;19.65;38.42
55187;BME280;55457;52.002;5.464;2023-04-26T02:13:13;101719.13;;;19.66;38.34
55187;BME280;55457;52.002;5.464;2023-04-26T02:15:39;101713.13;;;19.64;38.41
55187;BME280;55457;52.002;5.464;2023-04-26T02:18:04;101714.75;;;19.65;38.47
55187;BME280;55457;52.002;5.464;2023-04-26T02:20:30;101711.22;;;19.64;38.39
55187;BME280;55457;52.002;5.464;2023-04-26T02:22:55;101711.44;;;19.63;38.49
55187;BME280;55457;52.002;5.464;2023-04-26T02:25:20;101717.69;;;19.63;38.41
55187;BME280;55457;52.002;5.464;2023-04-26T02:27:46;101714.13;;;19.63;38.52
55187;BME280;55457;52.002;5.464;2023-04-26T02:30:12;101716.84;;;19.63;38.48
55187;BME280;55457;52.002;5.464;2023-04-26T02:32:37;101716.00;;;19.62;38.48
55187;BME280;55457;52.002;5.464;2023-04-26T02:35:03;101712.47;;;19.62;38.48
55187;BME280;55457;52.002;5.464;2023-04-26T02:37:29;101720.59;;;19.62;38.41
55187;BME280;55457;52.002;5.464;2023-04-26T02:39:54;101712.47;;;19.62;38.45
55187;BME280;55457;52.002;5.464;2023-04-26T02:42:20;101717.88;;;19.62;38.38
55187;BME280;55457;52.002;5.464;2023-04-26T02:44:45;101716.22;;;19.61;38.33
55187;BME280;55457;52.002;5.464;2023-04-26T02:47:10;101709.78;;;19.62;38.48
55187;BME280;55457;52.002;5.464;2023-04-26T02:49:36;101709.19;;;19.60;38.48
55187;BME280;55457;52.002;5.464;2023-04-26T02:52:01;101711.88;;;19.60;38.37
55187;BME280;55457;52.002;5.464;2023-04-26T02:54:27;101713.75;;;19.59;38.19
55187;BME280;55457;52.002;5.464;2023-04-26T02:56:52;101707.50;;;19.59;38.41
55187;BME280;55457;52.002;5.464;2023-04-26T02:59:19;101706.47;;;19.60;38.41
55187;BME280;55457;52.002;5.464;2023-04-26T03:01:44;101708.34;;;19.59;38.53
55187;BME280;55457;52.002;5.464;2023-04-26T03:04:10;101711.06;;;19.59;38.47
55187;BME280;55457;52.002;5.464;2023-04-26T03:06:35;101708.53;;;19.58;38.50
55187;BME280;55457;52.002;5.464;2023-04-26T03:09:00;101703.13;;;19.58;37.97
55187;BME280;55457;52.002;5.464;2023-04-26T03:11:26;101705.84;;;19.58;38.49
55187;BME280;55457;52.002;5.464;2023-04-26T03:13:51;101701.47;;;19.56;38.50
55187;BME280;55457;52.002;5.464;2023-04-26T03:16:18;101703.13;;;19.58;38.43
55187;BME280;55457;52.002;5.464;2023-04-26T03:18:45;101704.16;;;19.56;38.43
55187;BME280;55457;52.002;5.464;2023-04-26T03:21:10;101706.88;;;19.56;38.41
55187;BME280;55457;52.002;5.464;2023-04-26T03:23:36;101704.16;;;19.56;38.37
55187;BME280;55457;52.002;5.464;2023-04-26T03:26:01;101704.16;;;19.56;38.34
55187;BME280;55457;52.002;5.464;2023-04-26T03:28:27;101699.81;;;19.55;38.49
55187;BME280;55457;52.002;5.464;2023-04-26T03:30:52;101700.63;;;19.56;38.41
55187;BME280;55457;52.002;5.464;2023-04-26T03:33:18;101697.09;;;19.55;38.42
55187;BME280;55457;52.002;5.464;2023-04-26T03:35:43;101698.16;;;19.54;38.40
55187;BME280;55457;52.002;5.464;2023-04-26T03:38:08;101691.91;;;19.54;38.31
55187;BME280;55457;52.002;5.464;2023-04-26T03:40:34;101693.78;;;19.53;38.43
55187;BME280;55457;52.002;5.464;2023-04-26T03:42:59;101696.50;;;19.53;38.29
55187;BME280;55457;52.002;5.464;2023-04-26T03:45:24;101691.09;;;19.53;38.40
55187;BME280;55457;52.002;5.464;2023-04-26T03:47:51;101694.84;;;19.52;38.40
55187;BME280;55457;52.002;5.464;2023-04-26T03:50:16;101700.25;;;19.52;38.44
55187;BME280;55457;52.002;5.464;2023-04-26T03:52:41;101691.09;;;19.53;38.43
55187;BME280;55457;52.002;5.464;2023-04-26T03:55:07;101688.59;;;19.52;38.40
55187;BME280;55457;52.002;5.464;2023-04-26T03:57:34;101700.25;;;19.52;38.31
55187;BME280;55457;52.002;5.464;2023-04-26T04:00:00;101695.88;;;19.51;38.39
55187;BME280;55457;52.002;5.464;2023-04-26T04:02:25;101698.56;;;19.51;37.82
55187;BME280;55457;52.002;5.464;2023-04-26T04:04:50;101691.50;;;19.50;38.34
55187;BME280;55457;52.002;5.464;2023-04-26T04:07:16;101696.91;;;19.50;38.37
55187;BME280;55457;52.002;5.464;2023-04-26T04:09:43;101700.44;;;19.51;38.32
55187;BME280;55457;52.002;5.464;2023-04-26T04:12:09;101690.69;;;19.50;38.34
55187;BME280;55457;52.002;5.464;2023-04-26T04:14:34;101692.34;;;19.51;38.37
55187;BME280;55457;52.002;5.464;2023-04-26T04:16:59;101689.88;;;19.49;38.28
55187;BME280;55457;52.002;5.464;2023-04-26T04:19:25;101687.16;;;19.49;38.27
55187;BME280;55457;52.002;5.464;2023-04-26T04:21:50;101689.88;;;19.49;38.43
55187;BME280;55457;52.002;5.464;2023-04-26T04:24:16;101682.81;;;19.48;38.35
55187;BME280;55457;52.002;5.464;2023-04-26T04:26:41;101689.88;;;19.49;38.41
55187;BME280;55457;52.002;5.464;2023-04-26T04:29:06;101700.69;;;19.49;38.43
55187;BME280;55457;52.002;5.464;2023-04-26T04:31:35;101702.56;;;19.49;38.33
55187;BME280;55457;52.002;5.464;2023-04-26T04:34:00;101694.44;;;19.49;38.39
55187;BME280;55457;52.002;5.464;2023-04-26T04:36:26;101696.31;;;19.48;38.46
55187;BME280;55457;52.002;5.464;2023-04-26T04:38:51;101703.38;;;19.49;38.22
55187;BME280;55457;52.002;5.464;2023-04-26T04:41:17;101697.38;;;19.47;38.39
55187;BME280;55457;52.002;5.464;2023-04-26T04:43:42;101703.81;;;19.46;38.46
55187;BME280;55457;52.002;5.464;2023-04-26T04:46:08;101697.38;;;19.47;38.29
55187;BME280;55457;52.002;5.464;2023-04-26T04:48:33;101697.38;;;19.47;38.30
55187;BME280;55457;52.002;5.464;2023-04-26T04:50:59;101702.78;;;19.47;38.22
55187;BME280;55457;52.002;5.464;2023-04-26T04:53:26;101699.22;;;19.47;38.32
55187;BME280;55457;52.002;5.464;2023-04-26T04:55:51;101697.38;;;19.47;38.25
55187;BME280;55457;52.002;5.464;2023-04-26T04:58:16;101708.19;;;19.47;38.35
55187;BME280;55457;52.002;5.464;2023-04-26T05:00:42;101706.50;;;19.46;38.36
55187;BME280;55457;52.002;5.464;2023-04-26T05:03:07;101706.50;;;19.46;38.40
55187;BME280;55457;52.002;5.464;2023-04-26T05:05:33;101706.50;;;19.46;38.25
55187;BME280;55457;52.002;5.464;2023-04-26T05:07:59;101712.75;;;19.47;38.25
55187;BME280;55457;52.002;5.464;2023-04-26T05:10:25;101713.59;;;19.47;38.37
55187;BME280;55457;52.002;5.464;2023-04-26T05:12:50;101712.75;;;19.47;38.34
55187;BME280;55457;52.002;5.464;2023-04-26T05:15:15;101717.31;;;19.46;38.34
55187;BME280;55457;52.002;5.464;2023-04-26T05:17:41;101720.03;;;19.46;38.35
55187;BME280;55457;52.002;5.464;2023-04-26T05:20:07;101718.16;;;19.47;38.37
55187;BME280;55457;52.002;5.464;2023-04-26T05:22:32;101714.63;;;19.46;38.23
55187;BME280;55457;52.002;5.464;2023-04-26T05:25:00;101721.69;;;19.47;38.22
55187;BME280;55457;52.002;5.464;2023-04-26T05:27:27;101725.22;;;19.48;38.25
55187;BME280;55457;52.002;5.464;2023-04-26T05:29:52;101728.13;;;19.46;38.26
55187;BME280;55457;52.002;5.464;2023-04-26T05:32:18;101724.41;;;19.47;38.21
55187;BME280;55457;52.002;5.464;2023-04-26T05:34:43;101717.31;;;19.46;38.35
55187;BME280;55457;52.002;5.464;2023-04-26T05:37:08;101722.72;;;19.46;38.30
55187;BME280;55457;52.002;5.464;2023-04-26T05:39:34;101724.41;;;19.47;38.32
55187;BME280;55457;52.002;5.464;2023-04-26T05:41:59;101721.91;;;19.46;38.67
55187;BME280;55457;52.002;5.464;2023-04-26T05:44:25;101723.56;;;19.47;38.28
55187;BME280;55457;52.002;5.464;2023-04-26T05:46:50;101732.28;;;19.49;38.32
55187;BME280;55457;52.002;5.464;2023-04-26T05:49:16;101728.97;;;19.47;38.11
55187;BME280;55457;52.002;5.464;2023-04-26T05:51:41;101723.56;;;19.47;38.37
55187;BME280;55457;52.002;5.464;2023-04-26T05:54:07;101731.47;;;19.48;38.28
55187;BME280;55457;52.002;5.464;2023-04-26T05:56:32;101728.75;;;19.48;38.26
55187;BME280;55457;52.002;5.464;2023-04-26T05:58:57;101738.53;;;19.49;38.22
55187;BME280;55457;52.002;5.464;2023-04-26T06:01:23;101737.69;;;19.49;38.49
55187;BME280;55457;52.002;5.464;2023-04-26T06:03:49;101736.66;;;19.50;38.28
55187;BME280;55457;52.002;5.464;2023-04-26T06:06:14;101741.00;;;19.51;38.34
55187;BME280;55457;52.002;5.464;2023-04-26T06:08:41;101740.19;;;19.50;38.25
55187;BME280;55457;52.002;5.464;2023-04-26T06:11:07;101733.94;;;19.50;38.27
55187;BME280;55457;52.002;5.464;2023-04-26T06:13:32;101733.13;;;19.49;38.25
55187;BME280;55457;52.002;5.464;2023-04-26T06:15:58;101731.25;;;19.50;38.31
55187;BME280;55457;52.002;5.464;2023-04-26T06:18:23;101736.88;;;19.48;38.29
55187;BME280;55457;52.002;5.464;2023-04-26T06:20:48;101732.28;;;19.49;38.25
55187;BME280;55457;52.002;5.464;2023-04-26T06:23:15;101733.13;;;19.49;38.34
55187;BME280;55457;52.002;5.464;2023-04-26T06:25:40;101743.94;;;19.49;38.19
55187;BME280;55457;52.002;5.464;2023-04-26T06:28:09;101751.81;;;19.51;38.33
55187;BME280;55457;52.002;5.464;2023-04-26T06:30:34;101743.72;;;19.51;38.44
55187;BME280;55457;52.002;5.464;2023-04-26T06:33:00;101743.50;;;19.52;38.20
55187;BME280;55457;52.002;5.464;2023-04-26T06:35:25;101755.16;;;19.53;38.17
55187;BME280;55457;52.002;5.464;2023-04-26T06:37:50;101758.69;;;19.53;38.16
55187;BME280;55457;52.002;5.464;2023-04-26T06:40:16;101754.31;;;19.52;38.13
55187;BME280;55457;52.002;5.464;2023-04-26T06:42:41;101763.25;;;19.53;38.20
55187;BME280;55457;52.002;5.464;2023-04-26T06:45:08;101755.97;;;19.53;38.06
55187;BME280;55457;52.002;5.464;2023-04-26T06:47:33;101754.31;;;19.52;38.08
55187;BME280;55457;52.002;5.464;2023-04-26T06:49:59;101767.84;;;19.52;38.10
55187;BME280;55457;52.002;5.464;2023-04-26T06:52:24;101759.72;;;19.52;38.03
55187;BME280;55457;52.002;5.464;2023-04-26T06:54:50;101764.09;;;19.53;38.08
55187;BME280;55457;52.002;5.464;2023-04-26T06:57:15;101761.38;;;19.53;38.02
55187;BME280;55457;52.002;5.464;2023-04-26T06:59:41;101762.22;;;19.54;38.12
55187;BME280;55457;52.002;5.464;2023-04-26T07:02:06;101764.09;;;19.53;38.05
55187;BME280;55457;52.002;5.464;2023-04-26T07:04:31;101761.38;;;19.53;38.09
55187;BME280;55457;52.002;5.464;2023-04-26T07:06:57;101755.16;;;19.53;38.06
55187;BME280;55457;52.002;5.464;2023-04-26T07:09:22;101760.56;;;19.53;38.30
55187;BME280;55457;52.002;5.464;2023-04-26T07:11:47;101752.66;;;19.51;38.18
55187;BME280;55457;52.002;5.464;2023-04-26T07:14:13;101758.06;;;19.51;38.06
55187;BME280;55457;52.002;5.464;2023-04-26T07:16:39;101756.41;;;19.50;38.13
55187;BME280;55457;52.002;5.464;2023-04-26T07:19:05;101756.41;;;19.50;38.23
55187;BME280;55457;52.002;5.464;2023-04-26T07:21:31;101757.44;;;19.49;38.32
55187;BME280;55457;52.002;5.464;2023-04-26T07:23:56;101758.50;;;19.48;38.13
55187;BME280;55457;52.002;5.464;2023-04-26T07:26:23;101751.44;;;19.47;38.27
55187;BME280;55457;52.002;5.464;2023-04-26T07:28:52;101750.38;;;19.48;38.22
55187;BME280;55457;52.002;5.464;2023-04-26T07:31:18;101753.09;;;19.48;38.21
55187;BME280;55457;52.002;5.464;2023-04-26T07:33:43;101753.09;;;19.48;38.31
55187;BME280;55457;52.002;5.464;2023-04-26T07:36:09;101751.44;;;19.47;38.21
55187;BME280;55457;52.002;5.464;2023-04-26T07:38:34;101753.09;;;19.48;38.13
55187;BME280;55457;52.002;5.464;2023-04-26T07:41:00;101754.75;;;19.49;38.12
55187;BME280;55457;52.002;5.464;2023-04-26T07:43:26;101753.69;;;19.50;38.10
55187;BME280;55457;52.002;5.464;2023-04-26T07:45:51;101755.56;;;19.50;38.17
55187;BME280;55457;52.002;5.464;2023-04-26T07:48:17;101759.31;;;19.49;38.08
55187;BME280;55457;52.002;5.464;2023-04-26T07:50:42;101765.56;;;19.49;38.10
55187;BME280;55457;52.002;5.464;2023-04-26T07:53:07;101765.56;;;19.49;38.10
55187;BME280;55457;52.002;5.464;2023-04-26T07:55:33;101772.63;;;19.50;38.05
55187;BME280;55457;52.002;5.464;2023-04-26T07:57:58;101767.84;;;19.52;37.74
55187;BME280;55457;52.002;5.464;2023-04-26T08:00:23;101774.69;;;19.55;37.97
55187;BME280;55457;52.002;5.464;2023-04-26T08:02:49;101768.22;;;19.56;37.89
55187;BME280;55457;52.002;5.464;2023-04-26T08:05:14;101777.16;;;19.56;38.03
55187;BME280;55457;52.002;5.464;2023-04-26T08:07:41;101773.44;;;19.58;38.08
55187;BME280;55457;52.002;5.464;2023-04-26T08:10:07;101768.03;;;19.58;37.95
55187;BME280;55457;52.002;5.464;2023-04-26T08:12:33;101777.78;;;19.59;38.16
55187;BME280;55457;52.002;5.464;2023-04-26T08:15:00;101769.69;;;19.59;38.04
55187;BME280;55457;52.002;5.464;2023-04-26T08:17:25;101774.25;;;19.58;37.99
55187;BME280;55457;52.002;5.464;2023-04-26T08:19:51;101772.38;;;19.59;38.08
55187;BME280;55457;52.002;5.464;2023-04-26T08:22:16;101773.44;;;19.58;38.04
55187;BME280;55457;52.002;5.464;2023-04-26T08:24:46;101772.59;;;19.57;38.00
55187;BME280;55457;52.002;5.464;2023-04-26T08:27:11;101774.25;;;19.58;38.10
55187;BME280;55457;52.002;5.464;2023-04-26T08:29:37;101769.69;;;19.59;38.17
55187;BME280;55457;52.002;5.464;2023-04-26T08:32:02;101765.13;;;19.59;38.10
55187;BME280;55457;52.002;5.464;2023-04-26T08:34:27;101763.44;;;19.58;38.07
55187;BME280;55457;52.002;5.464;2023-04-26T08:36:53;101766.97;;;19.59;38.19
55187;BME280;55457;52.002;5.464;2023-04-26T08:39:18;101764.28;;;19.59;38.07
55187;BME280;55457;52.002;5.464;2023-04-26T08:41:54;101776.78;;;19.60;38.07
55187;BME280;55457;52.002;5.464;2023-04-26T08:44:23;101771.38;;;19.60;38.26
55187;BME280;55457;52.002;5.464;2023-04-26T08:49:34;101767.84;;;19.59;38.02
55187;BME280;55457;52.002;5.464;2023-04-26T08:52:02;101768.84;;;19.58;38.03
55187;BME280;55457;52.002;5.464;2023-04-26T08:54:30;101768.84;;;19.58;38.02
55187;BME280;55457;52.002;5.464;2023-04-26T08:56:57;101770.09;;;19.55;38.15
55187;BME280;55457;52.002;5.464;2023-04-26T08:59:23;101766.56;;;19.55;38.12
55187;BME280;55457;52.002;5.464;2023-04-26T09:01:49;101768.44;;;19.54;38.18
55187;BME280;55457;52.002;5.464;2023-04-26T09:04:14;101771.38;;;19.53;38.27
55187;BME280;55457;52.002;5.464;2023-04-26T09:06:40;101762.44;;;19.52;38.31
55187;BME280;55457;52.002;5.464;2023-04-26T09:09:07;101756.19;;;19.52;38.33
55187;BME280;55457;52.002;5.464;2023-04-26T09:14:18;101758.06;;;19.51;38.39
55187;BME280;55457;52.002;5.464;2023-04-26T09:16:43;101761.81;;;19.50;38.28
55187;BME280;55457;52.002;5.464;2023-04-26T09:19:09;101761.81;;;19.50;38.38
55187;BME280;55457;52.002;5.464;2023-04-26T09:21:41;101761.81;;;19.50;38.33
55187;BME280;55457;52.002;5.464;2023-04-26T09:24:07;101765.56;;;19.49;38.13
55187;BME280;55457;52.002;5.464;2023-04-26T09:26:32;101772.03;;;19.48;38.34
55187;BME280;55457;52.002;5.464;2023-04-26T09:29:17;101763.91;;;19.48;38.29
55187;BME280;55457;52.002;5.464;2023-04-26T09:31:45;101779.06;;;19.49;38.33
55187;BME280;55457;52.002;5.464;2023-04-26T09:34:11;101773.66;;;19.49;38.34
55187;BME280;55457;52.002;5.464;2023-04-26T09:36:54;101779.06;;;19.49;38.33
55187;BME280;55457;52.002;5.464;2023-04-26T09:39:34;101785.53;;;19.48;38.36
55187;BME280;55457;52.002;5.464;2023-04-26T09:42:02;101780.97;;;19.49;38.33
55187;BME280;55457;52.002;5.464;2023-04-26T09:44:28;101780.97;;;19.49;38.38
55187;BME280;55457;52.002;5.464;2023-04-26T09:47:07;101778.25;;;19.49;38.32
55187;BME280;55457;52.002;5.464;2023-04-26T09:49:54;101778.03;;;19.50;38.31
55187;BME280;55457;52.002;5.464;2023-04-26T09:52:20;101784.50;;;19.49;38.12
55187;BME280;55457;52.002;5.464;2023-04-26T09:54:47;101776.16;;;19.51;38.44
55187;BME280;55457;52.002;5.464;2023-04-26T09:57:15;101774.28;;;19.51;38.39
55187;BME280;55457;52.002;5.464;2023-04-26T09:59:45;101769.50;;;19.53;38.17
55187;BME280;55457;52.002;5.464;2023-04-26T10:02:24;101775.50;;;19.55;38.23
55187;BME280;55457;52.002;5.464;2023-04-26T10:04:54;101771.75;;;19.56;38.25
55187;BME280;55457;52.002;5.464;2023-04-26T10:07:23;101772.19;;;19.60;38.25
55187;BME280;55457;52.002;5.464;2023-04-26T10:09:49;101764.50;;;19.64;38.19
55187;BME280;55457;52.002;5.464;2023-04-26T10:12:18;101773.81;;;19.68;38.12
55187;BME280;55457;52.002;5.464;2023-04-26T10:14:45;101768.81;;;19.71;38.22
55187;BME280;55457;52.002;5.464;2023-04-26T10:17:11;101767.56;;;19.74;38.32
55187;BME280;55457;52.002;5.464;2023-04-26T10:19:38;101768.75;;;19.78;38.20
55187;BME280;55457;52.002;5.464;2023-04-26T10:22:08;101771.28;;;19.79;38.05
55187;BME280;55457;52.002;5.464;2023-04-26T10:24:35;101763.34;;;19.78;38.24
55187;BME280;55457;52.002;5.464;2023-04-26T10:27:01;101770.88;;;19.76;38.17
55187;BME280;55457;52.002;5.464;2023-04-26T10:32:20;101761.53;;;19.72;38.22
55187;BME280;55457;52.002;5.464;2023-04-26T10:37:35;101766.31;;;19.70;38.28
55187;BME280;55457;52.002;5.464;2023-04-26T10:40:22;101768.41;;;19.68;38.32
55187;BME280;55457;52.002;5.464;2023-04-26T10:42:48;101765.09;;;19.66;38.00
55187;BME280;55457;52.002;5.464;2023-04-26T10:45:25;101766.97;;;19.65;38.06
55187;BME280;55457;52.002;5.464;2023-04-26T10:48:15;101771.56;;;19.65;37.98
55187;BME280;55457;52.002;5.464;2023-04-26T10:51:10;101764.91;;;19.61;38.06
55187;BME280;55457;52.002;5.464;2023-04-26T10:56:19;101760.56;;;19.60;38.15
55187;BME280;55457;52.002;5.464;2023-04-26T10:59:10;101758.03;;;19.58;38.08
55187;BME280;55457;52.002;5.464;2023-04-26T11:01:36;101768.84;;;19.58;38.17
55187;BME280;55457;52.002;5.464;2023-04-26T11:04:09;101767.41;;;19.55;38.25
55187;BME280;55457;52.002;5.464;2023-04-26T11:06:51;101770.94;;;19.56;38.24
55187;BME280;55457;52.002;5.464;2023-04-26T11:12:11;101761.78;;;19.57;38.29
55187;BME280;55457;52.002;5.464;2023-04-26T11:14:37;101766.34;;;19.56;38.34
55187;BME280;55457;52.002;5.464;2023-04-26T11:17:04;101764.47;;;19.57;38.50
55187;BME280;55457;52.002;5.464;2023-04-26T11:19:30;101753.88;;;19.55;38.31
55187;BME280;55457;52.002;5.464;2023-04-26T11:21:57;101750.13;;;19.56;38.32
55187;BME280;55457;52.002;5.464;2023-04-26T11:24:27;101741.00;;;19.58;38.30
55187;BME280;55457;52.002;5.464;2023-04-26T11:26:52;101751.81;;;19.58;38.34
55187;BME280;55457;52.002;5.464;2023-04-26T11:29:19;101749.09;;;19.58;38.25
55187;BME280;55457;52.002;5.464;2023-04-26T11:31:55;101741.81;;;19.58;38.19
55187;BME280;55457;52.002;5.464;2023-04-26T11:34:30;101743.50;;;19.59;38.36
55187;BME280;55457;52.002;5.464;2023-04-26T11:36:55;101745.16;;;19.60;38.42
55187;BME280;55457;52.002;5.464;2023-04-26T11:39:21;101742.44;;;19.60;38.35
55187;BME280;55457;52.002;5.464;2023-04-26T11:41:47;101742.22;;;19.62;38.24
55187;BME280;55457;52.002;5.464;2023-04-26T11:44:12;101743.88;;;19.63;38.41
55187;BME280;55457;52.002;5.464;2023-04-26T11:46:37;101748.25;;;19.64;38.33
55187;BME280;55457;52.002;5.464;2023-04-26T11:49:06;101746.38;;;19.64;38.31
55187;BME280;55457;52.002;5.464;2023-04-26T11:51:32;101747.22;;;19.65;38.40
55187;BME280;55457;52.002;5.464;2023-04-26T11:53:59;101748.03;;;19.65;38.20
55187;BME280;55457;52.002;5.464;2023-04-26T11:56:25;101745.09;;;19.67;38.10
55187;BME280;55457;52.002;5.464;2023-04-26T11:58:51;101751.34;;;19.67;38.23
55187;BME280;55457;52.002;5.464;2023-04-26T12:01:24;101743.22;;;19.67;38.28
55187;BME280;55457;52.002;5.464;2023-04-26T12:03:54;101749.28;;;19.69;38.21
55187;BME280;55457;52.002;5.464;2023-04-26T12:06:28;101746.34;;;19.71;38.46
55187;BME280;55457;52.002;5.464;2023-04-26T12:08:55;101754.22;;;19.72;38.29
55187;BME280;55457;52.002;5.464;2023-04-26T12:11:20;101748.41;;;19.75;37.74
55187;BME280;55457;52.002;5.464;2023-04-26T12:13:46;101741.72;;;19.78;38.12
55187;BME280;55457;52.002;5.464;2023-04-26T12:16:12;101743.75;;;19.83;38.14
55187;BME280;55457;52.002;5.464;2023-04-26T12:18:38;101742.22;;;19.93;38.16
55187;BME280;55457;52.002;5.464;2023-04-26T12:21:03;101737.16;;;20.03;37.98
55187;BME280;55457;52.002;5.464;2023-04-26T12:23:36;101739.00;;;20.10;37.88
55187;BME280;55457;52.002;5.464;2023-04-26T12:26:03;101748.91;;;20.22;37.76
55187;BME280;55457;52.002;5.464;2023-04-26T12:28:29;101743.00;;;20.32;37.76
55187;BME280;55457;52.002;5.464;2023-04-26T12:30:54;101742.53;;;20.35;37.83
55187;BME280;55457;52.002;5.464;2023-04-26T12:33:20;101743.16;;;20.37;37.77
55187;BME280;55457;52.002;5.464;2023-04-26T12:35:48;101742.94;;;20.39;37.87
55187;BME280;55457;52.002;5.464;2023-04-26T12:38:13;101732.94;;;20.39;37.65
55187;BME280;55457;52.002;5.464;2023-04-26T12:40:40;101737.53;;;20.39;37.48
55187;BME280;55457;52.002;5.464;2023-04-26T12:43:06;101735.63;;;20.39;37.47
55187;BME280;55457;52.002;5.464;2023-04-26T12:45:31;101735.63;;;20.39;37.47
55187;BME280;55457;52.002;5.464;2023-04-26T12:47:57;101735.88;;;20.38;37.20
55187;BME280;55457;52.002;5.464;2023-04-26T12:50:22;101737.13;;;20.35;37.10
55187;BME280;55457;52.002;5.464;2023-04-26T12:52:49;101739.22;;;20.33;37.49
55187;BME280;55457;52.002;5.464;2023-04-26T12:55:15;101736.75;;;20.31;37.28
55187;BME280;55457;52.002;5.464;2023-04-26T12:57:42;101735.53;;;20.27;37.52
55187;BME280;55457;52.002;5.464;2023-04-26T13:00:10;101741.38;;;20.24;37.49
55187;BME280;55457;52.002;5.464;2023-04-26T13:02:36;101736.19;;;20.23;37.63
55187;BME280;55457;52.002;5.464;2023-04-26T13:05:01;101741.00;;;20.21;37.60